»·PEaware :: N6515D U08-KCDC

N6515D :: U08-KCDC

FLIGHT INFORMATION

Flight Status: Arrived
Operator: Privately registered:
United States
More flights under this callsign
Pilot: Charles S. (11412)
Aircraft: Unknown
(DA62)
More flights by this aircraft type
Origin: U08 Perkins
United States
Destination: KCDC Cedar City Regl
United States
More flights between these airports :: More routes between these airports
Route: +MMM V235 MATZO
File this flight plan on PilotEdge
Remarks:
Altitude:
(Current/Filed)
13,000ft
Speed:
(Current/Filed)
150kts
Departed: 15-Jun-18 06:33 PM
Arrived: 15-Jun-18 07:13 PM
Distance/Time
Traveled:
94nm/0:40
Distance/Time
To Go:
Arrived

Flight Plot

Page will automatically refresh every two minutes.

Flight plan parsing failed; only flown route is shown


Map Options




Map Legend


Flown Route
Filed Route
Departure Airport
Arrival Airport
Navaid (VOR, NDB)
Fix

Horizontal Profiles

Position Reports

Time Latitude Longitude Heading Altitude Ground
Speed
15-Jun-18 18:15 36.573416 -114.447080 150 1362ft 0kts
15-Jun-18 18:16 36.573416 -114.447080 150 1362ft 0kts
15-Jun-18 18:17 36.573416 -114.447080 150 1362ft 0kts
15-Jun-18 18:18 36.573416 -114.447080 150 1362ft 0kts
15-Jun-18 18:19 36.573416 -114.447080 150 1362ft 0kts
15-Jun-18 18:20 36.573416 -114.447080 150 1362ft 0kts
15-Jun-18 18:21 36.573416 -114.447080 150 1362ft 0kts
15-Jun-18 18:22 36.573416 -114.447080 150 1362ft 0kts
15-Jun-18 18:23 36.573416 -114.447080 150 1362ft 0kts
15-Jun-18 18:24 36.573416 -114.447080 150 1362ft 0kts
15-Jun-18 18:25 36.573416 -114.447080 150 1362ft 0kts
15-Jun-18 18:26 36.573416 -114.447080 150 1362ft 0kts
15-Jun-18 18:27 36.573416 -114.447080 150 1362ft 0kts
15-Jun-18 18:28 36.573416 -114.447080 150 1362ft 0kts
15-Jun-18 18:29 36.573416 -114.447080 150 1362ft 0kts
15-Jun-18 18:30 36.573416 -114.447080 150 1362ft 0kts
15-Jun-18 18:31 36.573416 -114.447080 150 1362ft 0kts
15-Jun-18 18:32 36.573404 -114.447071 150 1362ft 0kts
15-Jun-18 18:33 36.559434 -114.433224 110 1734ft 98kts
15-Jun-18 18:34 36.587784 -114.415540 4 2411ft 150kts
15-Jun-18 18:35 36.626379 -114.395142 36 3140ft 156kts
15-Jun-18 18:36 36.648399 -114.377309 37 3565ft 159kts
15-Jun-18 18:37 36.648399 -114.377309 37 3565ft 159kts
15-Jun-18 18:38 36.648399 -114.377309 37 3565ft 159kts
15-Jun-18 18:39 36.676410 -114.354247 37 4097ft 162kts
15-Jun-18 18:40 36.714089 -114.323147 37 4800ft 164kts
15-Jun-18 18:41 36.752448 -114.291445 36 5508ft 166kts
15-Jun-18 18:42 36.782492 -114.250410 66 6209ft 162kts
15-Jun-18 18:43 36.805698 -114.201658 65 6919ft 164kts
15-Jun-18 18:44 36.829181 -114.152611 65 7628ft 166kts
15-Jun-18 18:45 36.852972 -114.102853 65 8341ft 167kts
15-Jun-18 18:46 36.876911 -114.052714 65 9055ft 169kts
15-Jun-18 18:47 36.900984 -114.002250 65 9769ft 170kts
15-Jun-18 18:48 36.925292 -113.951274 65 10485ft 172kts
15-Jun-18 18:49 36.949820 -113.899681 65 11206ft 173kts
15-Jun-18 18:50 36.974511 -113.847625 65 11927ft 175kts
15-Jun-18 18:51 36.999388 -113.795083 65 12651ft 177kts
15-Jun-18 18:52 37.025108 -113.740560 65 13093ft 195kts
15-Jun-18 18:53 37.054276 -113.678800 64 13090ft 214kts
15-Jun-18 18:54 37.085295 -113.613005 64 13005ft 220kts
15-Jun-18 18:55 37.116210 -113.547276 64 12997ft 221kts
15-Jun-18 18:56 37.147286 -113.481123 64 12998ft 221kts
15-Jun-18 18:57 37.178379 -113.414758 64 12999ft 221kts
15-Jun-18 18:58 37.209421 -113.348238 65 12999ft 221kts
15-Jun-18 18:59 37.223676 -113.317652 65 12995ft 221kts
15-Jun-18 19:00 37.223676 -113.317652 65 12995ft 221kts
15-Jun-18 19:01 37.228242 -113.307943 65 12996ft 221kts
15-Jun-18 19:02 37.272441 -113.259438 14 13013ft 224kts
15-Jun-18 19:03 37.332036 -113.237344 13 13062ft 223kts
15-Jun-18 19:04 37.391021 -113.215308 13 13115ft 223kts
15-Jun-18 19:05 37.451345 -113.193873 357 12763ft 238kts
15-Jun-18 19:06 37.519314 -113.199243 350 11613ft 252kts
15-Jun-18 19:07 37.588551 -113.190746 30 9595ft 265kts
15-Jun-18 19:08 37.627007 -113.153560 43 8167ft 229kts
15-Jun-18 19:09 37.659939 -113.114854 43 6806ft 214kts
15-Jun-18 19:10 37.694654 -113.075548 42 6999ft 152kts
15-Jun-18 19:11 37.723367 -113.072240 270 6175ft 102kts
15-Jun-18 19:12 37.709982 -113.091217 213 5619ft 68kts
15-Jun-18 19:13 37.703762 -113.096533 210 5598ft 0kts

Navigation Log

Ident Type
Flight plan parsing failed, navigation log unavailable